Time;durP1;ratioP1;P1;durP2;ratioP2;P2;SDS_P1;SDS_P2;PMS_P1;PMS_P2;Temp;Humidity;BMP_temperature;BMP_pressure;BME280_temperature;BME280_humidity;BME280_pressure;Samples;Min_cycle;Max_cycle;Signal;HPM_P1;HPM_P2
2022/05/01 00:02:07;;;;;;;4.80;2.53;;;;;;;;;;5098007;28;20498;-90
2022/05/01 00:04:34;;;;;;;3.90;1.90;;;;;;;;;;5116265;28;20030;-91
2022/05/01 00:06:59;;;;;;;2.75;2.25;;;;;;;;;;5097599;28;20023;-91
2022/05/01 00:09:25;;;;;;;2.90;2.10;;;;;;;;;;5116294;28;20148;-90
2022/05/01 00:11:51;;;;;;;3.20;1.80;;;;;;;;;;5097229;28;20084;-90
2022/05/01 00:14:17;;;;;;;3.00;1.88;;;;;;;;;;5115717;28;20023;-91
2022/05/01 00:16:42;;;;;;;3.42;2.53;;;;;;;;;;5097513;28;20102;-89
2022/05/01 00:19:08;;;;;;;4.80;2.70;;;;;;;;;;5096984;28;20146;-89
2022/05/01 00:21:35;;;;;;;3.50;2.80;;;;;;;;;;5115203;28;20077;-87
2022/05/01 00:24:00;;;;;;;3.00;2.55;;;;;;;;;;5096964;28;20043;-86
2022/05/01 00:26:27;;;;;;;3.75;3.13;;;;;;;;;;5115331;28;20070;-88
2022/05/01 00:28:53;;;;;;;3.25;2.63;;;;;;;;;;5115373;28;20027;-88
2022/05/01 00:31:19;;;;;;;3.92;2.92;;;;;;;;;;5115510;28;20019;-90
2022/05/01 00:36:29;;;;;;;5.05;3.00;;;;;;;;;;5114693;28;20383;-85
2022/05/01 00:39:01;;;;;;;2.80;2.05;;;;;;;;;;5113209;28;20048;-85
2022/05/01 00:41:31;;;;;;;3.58;2.30;;;;;;;;;;5114979;28;20027;-85
2022/05/01 00:44:05;;;;;;;3.58;2.10;;;;;;;;;;5114691;28;20015;-87
2022/05/01 00:46:39;;;;;;;3.40;2.05;;;;;;;;;;5096629;28;20032;-92
2022/05/01 00:49:08;;;;;;;2.42;1.95;;;;;;;;;;5096771;28;20106;-89
2022/05/01 00:51:58;;;;;;;3.60;2.35;;;;;;;;;;5094574;28;20088;-88
2022/05/01 00:54:31;;;;;;;4.57;3.00;;;;;;;;;;5082200;28;20584;-93
2022/05/01 00:57:00;;;;;;;6.40;3.78;;;;;;;;;;5096319;28;20110;-89
2022/05/01 00:59:30;;;;;;;5.63;2.43;;;;;;;;;;5096921;28;20023;-90
2022/05/01 01:01:56;;;;;;;7.57;4.78;;;;;;;;;;5115048;28;20397;-89
2022/05/01 01:04:22;;;;;;;3.88;2.35;;;;;;;;;;5114828;28;20055;-88
2022/05/01 01:06:48;;;;;;;3.60;2.40;;;;;;;;;;5096506;28;20062;-90
2022/05/01 01:09:15;;;;;;;2.45;1.90;;;;;;;;;;5096025;28;20023;-87
2022/05/01 01:11:42;;;;;;;1.88;1.67;;;;;;;;;;5114032;28;20543;-87
2022/05/01 01:14:09;;;;;;;2.72;1.98;;;;;;;;;;5114057;28;20100;-85
2022/05/01 01:16:36;;;;;;;3.95;2.70;;;;;;;;;;5095856;28;20020;-86
2022/05/01 01:19:07;;;;;;;3.53;2.78;;;;;;;;;;5114017;28;20028;-83
2022/05/01 01:21:33;;;;;;;4.57;2.95;;;;;;;;;;5095219;28;20057;-89
2022/05/01 01:24:01;;;;;;;4.22;2.50;;;;;;;;;;5113094;28;20498;-92
2022/05/01 01:26:28;;;;;;;6.05;4.82;;;;;;;;;;5093760;28;20019;-88
2022/05/01 01:28:55;;;;;;;4.70;3.90;;;;;;;;;;5112868;28;20048;-88
2022/05/01 01:31:40;;;;;;;7.35;4.85;;;;;;;;;;5113719;28;20038;-87
2022/05/01 01:34:12;;;;;;;6.38;4.70;;;;;;;;;;5114995;28;20034;-91
2022/05/01 01:36:39;;;;;;;5.50;3.33;;;;;;;;;;5095813;28;20395;-87
2022/05/01 01:39:05;;;;;;;3.90;3.33;;;;;;;;;;5092225;28;20039;-87
2022/05/01 01:41:32;;;;;;;3.92;3.00;;;;;;;;;;5092982;28;20038;-87
2022/05/01 01:43:59;;;;;;;3.83;3.10;;;;;;;;;;5095918;28;20383;-87
2022/05/01 01:46:25;;;;;;;4.80;3.63;;;;;;;;;;5096919;28;20031;-90
2022/05/01 01:48:51;;;;;;;8.00;3.13;;;;;;;;;;5115140;28;20031;-86
2022/05/01 01:51:18;;;;;;;3.75;3.10;;;;;;;;;;5096079;28;20028;-87
2022/05/01 01:53:44;;;;;;;3.72;3.03;;;;;;;;;;5097997;28;20024;-88
2022/05/01 01:56:09;;;;;;;5.93;4.18;;;;;;;;;;5096336;28;20038;-90
2022/05/01 01:58:36;;;;;;;4.35;3.42;;;;;;;;;;5114954;28;20481;-91
2022/05/01 02:01:06;;;;;;;4.55;3.67;;;;;;;;;;5115040;28;20028;-87
2022/05/01 02:03:33;;;;;;;4.70;3.30;;;;;;;;;;5096449;28;20020;-88
2022/05/01 02:05:59;;;;;;;3.38;2.92;;;;;;;;;;5113551;28;20030;-87
2022/05/01 02:08:25;;;;;;;5.00;4.03;;;;;;;;;;5096221;28;20111;-88
2022/05/01 02:10:50;;;;;;;9.98;4.20;;;;;;;;;;5097030;28;20069;-88
2022/05/01 02:13:16;;;;;;;4.55;3.40;;;;;;;;;;5115258;28;20404;-86
2022/05/01 02:15:42;;;;;;;5.13;4.20;;;;;;;;;;5115349;28;20059;-89
2022/05/01 02:18:07;;;;;;;5.78;4.22;;;;;;;;;;5095478;28;20164;-91
2022/05/01 02:23:20;;;;;;;6.70;5.35;;;;;;;;;;5110527;28;20031;-91
2022/05/01 02:25:47;;;;;;;6.95;5.50;;;;;;;;;;5113269;28;20024;-91
2022/05/01 02:28:12;;;;;;;7.20;6.30;;;;;;;;;;5113248;28;20382;-90
2022/05/01 02:30:38;;;;;;;6.35;4.57;;;;;;;;;;5095240;28;20023;-91
2022/05/01 02:33:07;;;;;;;8.93;4.88;;;;;;;;;;5094716;28;20081;-90
2022/05/01 02:35:36;;;;;;;6.97;6.15;;;;;;;;;;5113264;28;20063;-89
2022/05/01 02:38:02;;;;;;;6.38;5.40;;;;;;;;;;5095138;28;20028;-89
2022/05/01 02:40:31;;;;;;;6.47;4.72;;;;;;;;;;5094694;28;20043;-90
2022/05/01 02:42:58;;;;;;;5.40;4.28;;;;;;;;;;5113236;28;20069;-89
2022/05/01 02:45:28;;;;;;;4.93;3.80;;;;;;;;;;5094887;28;20028;-91
2022/05/01 02:48:03;;;;;;;6.13;3.70;;;;;;;;;;5094552;28;20027;-88
2022/05/01 02:50:29;;;;;;;6.15;3.60;;;;;;;;;;5113004;28;20023;-89
2022/05/01 02:52:55;;;;;;;4.40;3.28;;;;;;;;;;5112815;28;20532;-90
2022/05/01 02:55:21;;;;;;;6.13;2.53;;;;;;;;;;5094508;28;20028;-92
2022/05/01 02:57:47;;;;;;;1.95;1.63;;;;;;;;;;5094666;28;20031;-91
2022/05/01 03:00:16;;;;;;;2.78;1.50;;;;;;;;;;5112618;28;20015;-90
2022/05/01 03:02:48;;;;;;;3.30;1.90;;;;;;;;;;5112696;28;20080;-88
2022/05/01 03:05:14;;;;;;;2.35;1.70;;;;;;;;;;5111180;28;20019;-89
2022/05/01 03:07:39;;;;;;;1.65;1.30;;;;;;;;;;5094610;28;20027;-88
2022/05/01 03:10:06;;;;;;;2.08;1.50;;;;;;;;;;5112602;28;20082;-89
2022/05/01 03:12:31;;;;;;;4.13;2.10;;;;;;;;;;5094254;28;20433;-91
2022/05/01 03:14:57;;;;;;;3.95;2.75;;;;;;;;;;5112628;28;20023;-88
2022/05/01 03:17:23;;;;;;;4.22;2.08;;;;;;;;;;5112974;28;20028;-91
2022/05/01 03:22:32;;;;;;;3.58;2.67;;;;;;;;;;5114490;28;20039;-88
2022/05/01 03:24:58;;;;;;;1.63;1.20;;;;;;;;;;5116386;28;20027;-89
2022/05/01 03:27:23;;;;;;;2.03;1.33;;;;;;;;;;5098424;28;20107;-89
2022/05/01 03:32:33;;;;;;;9.20;2.05;;;;;;;;;;5111163;28;20701;-88
2022/05/01 03:34:58;;;;;;;5.72;1.80;;;;;;;;;;5098313;28;20020;-91
2022/05/01 03:37:24;;;;;;;7.55;2.47;;;;;;;;;;5098293;28;20593;-87
2022/05/01 03:39:49;;;;;;;4.65;2.42;;;;;;;;;;5098171;28;20156;-88
2022/05/01 03:42:16;;;;;;;3.72;2.35;;;;;;;;;;5116652;28;20050;-90
2022/05/01 03:44:42;;;;;;;3.55;2.97;;;;;;;;;;5096094;28;20023;-89
2022/05/01 03:47:07;;;;;;;5.97;4.30;;;;;;;;;;5116103;28;20042;-87
2022/05/01 03:49:33;;;;;;;6.15;4.00;;;;;;;;;;5098027;28;20035;-88
2022/05/01 03:51:58;;;;;;;6.78;4.55;;;;;;;;;;5097919;28;20033;-89
2022/05/01 03:54:24;;;;;;;8.35;5.47;;;;;;;;;;5098129;28;20579;-89
2022/05/01 03:56:49;;;;;;;6.40;4.78;;;;;;;;;;5116243;28;20027;-87
2022/05/01 03:59:15;;;;;;;7.65;5.35;;;;;;;;;;5098043;28;20023;-88
2022/05/01 04:01:42;;;;;;;7.35;5.90;;;;;;;;;;5098150;28;20038;-89
2022/05/01 04:04:08;;;;;;;8.45;6.07;;;;;;;;;;5097531;28;20031;-89
2022/05/01 04:06:33;;;;;;;9.35;6.18;;;;;;;;;;5097749;28;20096;-89
2022/05/01 04:09:00;;;;;;;6.60;5.68;;;;;;;;;;5096585;28;20051;-89
2022/05/01 04:11:25;;;;;;;8.35;5.97;;;;;;;;;;5111512;28;20038;-90
2022/05/01 04:13:51;;;;;;;9.02;6.80;;;;;;;;;;5097356;28;20036;-91
2022/05/01 04:16:16;;;;;;;9.57;7.10;;;;;;;;;;5097525;28;20024;-89
2022/05/01 04:18:42;;;;;;;9.65;7.18;;;;;;;;;;5115858;28;20031;-89
2022/05/01 04:21:07;;;;;;;9.90;6.97;;;;;;;;;;5096983;28;20019;-89
2022/05/01 04:23:33;;;;;;;8.85;6.55;;;;;;;;;;5092524;28;20111;-89
2022/05/01 04:26:03;;;;;;;13.40;7.97;;;;;;;;;;5089830;28;20034;-89
2022/05/01 04:28:29;;;;;;;12.40;7.22;;;;;;;;;;5096546;28;20405;-90
2022/05/01 04:30:55;;;;;;;8.18;6.00;;;;;;;;;;5095234;28;20073;-89
2022/05/01 04:33:21;;;;;;;9.65;6.10;;;;;;;;;;5097326;28;20115;-88
2022/05/01 04:35:48;;;;;;;8.10;6.38;;;;;;;;;;5112988;28;20502;-89
2022/05/01 04:38:18;;;;;;;8.13;6.80;;;;;;;;;;5116249;28;20471;-90
2022/05/01 04:40:46;;;;;;;9.68;6.82;;;;;;;;;;5108193;28;20016;-90
2022/05/01 04:43:20;;;;;;;9.00;6.95;;;;;;;;;;5097453;28;20041;-88
2022/05/01 04:45:47;;;;;;;8.70;6.90;;;;;;;;;;5097254;28;20032;-89
2022/05/01 04:48:14;;;;;;;8.38;7.25;;;;;;;;;;5116277;28;20076;-90
2022/05/01 04:50:41;;;;;;;8.20;6.53;;;;;;;;;;5097396;28;20425;-88
2022/05/01 04:53:09;;;;;;;8.82;7.25;;;;;;;;;;5114926;28;20073;-88
2022/05/01 04:55:36;;;;;;;9.15;7.78;;;;;;;;;;5095625;28;20442;-80
2022/05/01 04:58:02;;;;;;;11.90;7.63;;;;;;;;;;5114145;28;20408;-85
2022/05/01 05:00:28;;;;;;;9.30;7.57;;;;;;;;;;5114455;28;20027;-85
2022/05/01 05:02:55;;;;;;;10.57;8.27;;;;;;;;;;5114506;28;20024;-87
2022/05/01 05:05:21;;;;;;;9.60;7.35;;;;;;;;;;5114152;28;20027;-85
2022/05/01 05:10:53;;;;;;;9.10;7.45;;;;;;;;;;5114203;28;20030;-87
2022/05/01 05:13:27;;;;;;;11.50;8.57;;;;;;;;;;5114357;28;20107;-86
2022/05/01 05:15:59;;;;;;;11.25;8.88;;;;;;;;;;5113700;28;20027;-87
2022/05/01 05:18:25;;;;;;;9.45;8.40;;;;;;;;;;5114061;28;20027;-84
2022/05/01 05:20:51;;;;;;;11.32;9.23;;;;;;;;;;5094799;28;20501;-86
2022/05/01 05:23:17;;;;;;;11.02;9.43;;;;;;;;;;5096201;28;20032;-84
2022/05/01 05:25:43;;;;;;;13.98;10.05;;;;;;;;;;5091495;28;20024;-85
2022/05/01 05:28:08;;;;;;;13.32;10.50;;;;;;;;;;5095084;28;20024;-87
2022/05/01 05:31:03;;;;;;;11.43;9.25;;;;;;;;;;5114470;28;20028;-90
2022/05/01 05:33:31;;;;;;;11.57;9.85;;;;;;;;;;5095788;28;20046;-90
2022/05/01 05:35:57;;;;;;;10.85;9.07;;;;;;;;;;5114752;28;20060;-88
2022/05/01 05:38:33;;;;;;;11.35;9.20;;;;;;;;;;5095563;28;20031;-90
2022/05/01 05:41:22;;;;;;;10.75;8.88;;;;;;;;;;5095572;28;20509;-89
2022/05/01 05:43:49;;;;;;;12.73;9.38;;;;;;;;;;5105021;28;20431;-88
2022/05/01 05:46:24;;;;;;;12.20;9.63;;;;;;;;;;5097141;28;20128;-90
2022/05/01 05:48:56;;;;;;;9.88;8.85;;;;;;;;;;5096188;28;20027;-92
2022/05/01 05:51:26;;;;;;;11.90;9.65;;;;;;;;;;5114867;28;20038;-92
2022/05/01 05:54:00;;;;;;;12.23;8.88;;;;;;;;;;5096111;28;20096;-92
2022/05/01 05:56:49;;;;;;;13.15;9.70;;;;;;;;;;5090353;28;20391;-89
2022/05/01 05:59:18;;;;;;;13.88;8.90;;;;;;;;;;5095042;28;20024;-92
2022/05/01 06:01:46;;;;;;;12.18;9.27;;;;;;;;;;5096433;28;20383;-91
2022/05/01 06:04:37;;;;;;;11.65;9.70;;;;;;;;;;5097021;28;20102;-90
2022/05/01 06:07:21;;;;;;;11.05;8.88;;;;;;;;;;5095070;28;20036;-90
2022/05/01 06:09:56;;;;;;;11.23;8.52;;;;;;;;;;5114308;28;20023;-91
2022/05/01 06:12:22;;;;;;;10.25;8.93;;;;;;;;;;5114567;28;20104;-91
2022/05/01 06:14:47;;;;;;;10.48;8.40;;;;;;;;;;5095279;28;20821;-89
2022/05/01 06:17:13;;;;;;;12.15;9.30;;;;;;;;;;5094347;28;21703;-87
2022/05/01 06:19:39;;;;;;;11.07;9.48;;;;;;;;;;5091927;28;20114;-87
2022/05/01 06:22:05;;;;;;;11.77;9.13;;;;;;;;;;5093067;28;20058;-87
2022/05/01 06:24:31;;;;;;;10.10;8.77;;;;;;;;;;5111773;28;20059;-88
2022/05/01 06:26:57;;;;;;;10.52;8.75;;;;;;;;;;5090928;28;20421;-86
2022/05/01 06:29:23;;;;;;;11.88;8.23;;;;;;;;;;5094155;28;20020;-85
2022/05/01 06:31:48;;;;;;;12.40;8.98;;;;;;;;;;5112084;28;20032;-86
2022/05/01 06:34:15;;;;;;;9.80;8.43;;;;;;;;;;5093185;28;20031;-91
2022/05/01 06:36:41;;;;;;;8.98;7.90;;;;;;;;;;5111977;28;20051;-87
2022/05/01 06:39:09;;;;;;;12.63;8.77;;;;;;;;;;5112932;28;20075;-87
2022/05/01 06:41:35;;;;;;;8.95;7.80;;;;;;;;;;5114055;27;20031;-90
2022/05/01 06:44:00;;;;;;;11.45;8.90;;;;;;;;;;5094684;28;20112;-89
2022/05/01 06:46:26;;;;;;;9.70;8.30;;;;;;;;;;5111456;28;20059;-88
2022/05/01 06:48:51;;;;;;;10.60;8.27;;;;;;;;;;5112990;28;20027;-90
2022/05/01 06:51:17;;;;;;;10.43;8.80;;;;;;;;;;5111641;28;20027;-89
2022/05/01 06:53:42;;;;;;;9.13;7.30;;;;;;;;;;5112157;28;20024;-90
2022/05/01 06:56:08;;;;;;;11.75;8.10;;;;;;;;;;5093371;28;20114;-89
2022/05/01 06:58:35;;;;;;;10.60;8.85;;;;;;;;;;5094094;28;20046;-89
2022/05/01 07:01:00;;;;;;;14.02;10.10;;;;;;;;;;5110018;28;20019;-88
2022/05/01 07:03:26;;;;;;;7.97;6.82;;;;;;;;;;5089372;28;20437;-89
2022/05/01 07:05:51;;;;;;;11.23;8.20;;;;;;;;;;5090674;28;20487;-87
2022/05/01 07:08:17;;;;;;;6.53;5.47;;;;;;;;;;5094053;28;20047;-84
2022/05/01 07:10:43;;;;;;;6.53;5.55;;;;;;;;;;5112131;28;20019;-87
2022/05/01 07:13:10;;;;;;;8.05;5.82;;;;;;;;;;5092564;28;20384;-90
2022/05/01 07:15:36;;;;;;;11.18;7.82;;;;;;;;;;5112392;28;20432;-87
2022/05/01 07:18:03;;;;;;;10.02;5.38;;;;;;;;;;5092816;28;20157;-89
2022/05/01 07:20:29;;;;;;;7.47;4.70;;;;;;;;;;5110610;28;20035;-89
2022/05/01 07:22:54;;;;;;;6.30;5.38;;;;;;;;;;5093840;28;20030;-90
2022/05/01 07:25:20;;;;;;;6.47;4.57;;;;;;;;;;5091258;28;20027;-88
2022/05/01 07:27:45;;;;;;;7.70;5.63;;;;;;;;;;5112342;28;20506;-89
2022/05/01 07:30:11;;;;;;;9.07;5.38;;;;;;;;;;5089668;28;20382;-89
2022/05/01 07:32:37;;;;;;;6.70;5.32;;;;;;;;;;5094239;28;20397;-85
2022/05/01 07:35:02;;;;;;;4.65;3.97;;;;;;;;;;5112086;28;20110;-89
2022/05/01 07:37:28;;;;;;;6.50;4.43;;;;;;;;;;5112175;28;20455;-87
2022/05/01 07:39:54;;;;;;;6.88;4.70;;;;;;;;;;5112160;28;20139;-87
2022/05/01 07:42:21;;;;;;;6.15;5.20;;;;;;;;;;5111850;28;20066;-86
2022/05/01 07:44:47;;;;;;;5.43;4.78;;;;;;;;;;5111858;28;20560;-88
2022/05/01 07:47:12;;;;;;;6.65;5.88;;;;;;;;;;5112039;28;20019;-90
2022/05/01 07:49:38;;;;;;;6.82;5.45;;;;;;;;;;5093880;28;20077;-89
2022/05/01 07:52:04;;;;;;;7.65;6.10;;;;;;;;;;5111588;28;20020;-89
2022/05/01 07:54:29;;;;;;;7.95;5.53;;;;;;;;;;5111993;28;20032;-88
2022/05/01 07:56:55;;;;;;;6.05;5.05;;;;;;;;;;5111889;28;20383;-87
2022/05/01 07:59:20;;;;;;;9.35;5.25;;;;;;;;;;5093482;28;20035;-88
2022/05/01 08:01:46;;;;;;;6.78;6.18;;;;;;;;;;5111954;28;20027;-90
2022/05/01 08:04:29;;;;;;;5.72;4.68;;;;;;;;;;5113783;28;20030;-88
2022/05/01 08:07:03;;;;;;;5.18;4.68;;;;;;;;;;5116028;28;20028;-88
2022/05/01 08:09:30;;;;;;;4.93;4.30;;;;;;;;;;5114144;28;20028;-85
2022/05/01 08:11:56;;;;;;;8.32;5.05;;;;;;;;;;5115632;28;20023;-86
2022/05/01 08:14:22;;;;;;;6.97;5.20;;;;;;;;;;5115485;28;20485;-87
2022/05/01 08:16:50;;;;;;;6.18;5.32;;;;;;;;;;5097128;28;20053;-87
2022/05/01 08:22:00;;;;;;;7.65;4.93;;;;;;;;;;5115669;28;20026;-87
2022/05/01 08:24:25;;;;;;;6.97;4.70;;;;;;;;;;5093978;28;20387;-87
2022/05/01 08:26:51;;;;;;;6.22;4.25;;;;;;;;;;5097035;28;20066;-88
2022/05/01 08:29:17;;;;;;;5.93;5.03;;;;;;;;;;5096901;28;20031;-85
2022/05/01 08:31:45;;;;;;;5.80;4.90;;;;;;;;;;5113949;28;20047;-88
2022/05/01 08:34:11;;;;;;;7.30;5.22;;;;;;;;;;5113925;28;20024;-85
2022/05/01 08:36:36;;;;;;;4.35;3.88;;;;;;;;;;5115383;28;20024;-89
2022/05/01 08:39:03;;;;;;;10.30;4.18;;;;;;;;;;5115421;28;20054;-88
2022/05/01 08:41:31;;;;;;;6.85;4.00;;;;;;;;;;5115297;28;20092;-89
2022/05/01 08:43:57;;;;;;;3.50;3.08;;;;;;;;;;5096047;28;20016;-87
2022/05/01 08:46:42;;;;;;;8.63;3.50;;;;;;;;;;5114929;28;20038;-85
2022/05/01 08:49:09;;;;;;;4.00;3.00;;;;;;;;;;5108251;28;20027;-89
2022/05/01 08:51:36;;;;;;;4.35;3.35;;;;;;;;;;5095991;28;20101;-89
2022/05/01 08:54:07;;;;;;;7.38;3.65;;;;;;;;;;5111198;28;20023;-87
2022/05/01 08:56:34;;;;;;;4.93;3.90;;;;;;;;;;5111814;28;20042;-85
2022/05/01 08:59:04;;;;;;;9.70;5.32;;;;;;;;;;5111227;28;20118;-86
2022/05/01 09:01:34;;;;;;;5.53;4.75;;;;;;;;;;5114624;28;20421;-86
2022/05/01 09:04:00;;;;;;;9.68;4.25;;;;;;;;;;5094045;28;20047;-85
2022/05/01 09:06:26;;;;;;;4.50;3.75;;;;;;;;;;5112899;28;20035;-89
2022/05/01 09:08:52;;;;;;;4.85;3.83;;;;;;;;;;5115312;28;20031;-87
2022/05/01 09:14:05;;;;;;;3.92;3.47;;;;;;;;;;5114494;28;20109;-89
2022/05/01 09:16:31;;;;;;;4.07;3.60;;;;;;;;;;5111144;28;20035;-84
2022/05/01 09:18:58;;;;;;;4.72;3.03;;;;;;;;;;5112452;28;20028;-82
2022/05/01 09:21:23;;;;;;;3.35;3.00;;;;;;;;;;5111324;28;20039;-89
2022/05/01 09:23:49;;;;;;;4.50;2.70;;;;;;;;;;5109603;28;20015;-85
2022/05/01 09:26:17;;;;;;;2.78;2.42;;;;;;;;;;5093181;28;20031;-87
2022/05/01 09:28:53;;;;;;;4.57;2.55;;;;;;;;;;5113283;28;20029;-87
2022/05/01 09:31:45;;;;;;;4.53;2.80;;;;;;;;;;5113437;28;20027;-85
2022/05/01 09:34:18;;;;;;;7.13;3.08;;;;;;;;;;5113446;28;20023;-88
2022/05/01 09:36:44;;;;;;;4.05;2.97;;;;;;;;;;5111736;28;20059;-89
2022/05/01 09:39:09;;;;;;;7.03;3.63;;;;;;;;;;5112739;28;20046;-87
2022/05/01 09:41:41;;;;;;;3.95;2.75;;;;;;;;;;5092114;28;20023;-88
2022/05/01 09:44:17;;;;;;;4.97;3.05;;;;;;;;;;5109817;28;20523;-86
2022/05/01 09:46:44;;;;;;;2.42;2.10;;;;;;;;;;5095063;28;20050;-84
2022/05/01 09:49:14;;;;;;;3.10;2.45;;;;;;;;;;5092049;28;20027;-87
2022/05/01 09:51:52;;;;;;;5.55;2.03;;;;;;;;;;5112032;28;20038;-86
2022/05/01 09:54:22;;;;;;;2.55;1.85;;;;;;;;;;5111498;28;20119;-85
2022/05/01 09:56:49;;;;;;;6.00;2.47;;;;;;;;;;5093757;28;20031;-89
2022/05/01 09:59:17;;;;;;;4.78;2.90;;;;;;;;;;5109990;28;20080;-86
2022/05/01 10:02:05;;;;;;;3.30;2.67;;;;;;;;;;5112738;28;21435;-85
2022/05/01 10:04:32;;;;;;;3.28;2.10;;;;;;;;;;5110290;28;20016;-89
2022/05/01 10:06:58;;;;;;;2.13;1.92;;;;;;;;;;5111621;28;20084;-90
2022/05/01 10:09:25;;;;;;;5.40;2.80;;;;;;;;;;5109813;28;20118;-91
2022/05/01 10:11:56;;;;;;;2.83;2.20;;;;;;;;;;5112479;28;20019;-86
2022/05/01 10:14:22;;;;;;;3.35;2.20;;;;;;;;;;5112381;28;20024;-88
2022/05/01 10:16:48;;;;;;;4.03;2.70;;;;;;;;;;5108582;28;20016;-87
2022/05/01 10:19:15;;;;;;;2.28;1.80;;;;;;;;;;5107836;28;20038;-87
2022/05/01 10:21:45;;;;;;;2.65;2.00;;;;;;;;;;5112489;28;20028;-87
2022/05/01 10:24:10;;;;;;;;;;;;;;;;;;5094273;28;20413;-85
2022/05/01 10:26:39;;;;;;;2.92;1.70;;;;;;;;;;5091699;28;19915;-84
2022/05/01 10:29:21;;;;;;;3.08;2.50;;;;;;;;;;5094019;28;20106;-85
2022/05/01 10:32:24;;;;;;;2.15;1.90;;;;;;;;;;5109751;28;20031;-86
2022/05/01 10:35:12;;;;;;;2.17;1.73;;;;;;;;;;5111011;28;20024;-86
2022/05/01 10:38:03;;;;;;;4.22;2.15;;;;;;;;;;5111377;28;20027;-86
2022/05/01 10:40:53;;;;;;;7.68;4.22;;;;;;;;;;5108865;28;20503;-85
2022/05/01 10:43:35;;;;;;;4.78;2.60;;;;;;;;;;5101061;28;20078;-88
2022/05/01 10:46:17;;;;;;;7.25;4.53;;;;;;;;;;5093548;28;20110;-89
2022/05/01 10:48:43;;;;;;;4.57;3.40;;;;;;;;;;5093575;28;20471;-89
2022/05/01 10:51:35;;;;;;;4.88;2.47;;;;;;;;;;5090496;28;20032;-87
2022/05/01 10:54:10;;;;;;;7.13;4.10;;;;;;;;;;5100449;28;20100;-87
2022/05/01 10:56:41;;;;;;;3.80;3.25;;;;;;;;;;5092668;28;20030;-87
2022/05/01 10:59:33;;;;;;;3.28;2.63;;;;;;;;;;5110839;28;20072;-89
2022/05/01 11:02:22;;;;;;;3.58;2.55;;;;;;;;;;5111160;28;20375;-88
2022/05/01 11:04:49;;;;;;;3.92;2.55;;;;;;;;;;5111394;28;20018;-87
2022/05/01 11:07:16;;;;;;;3.20;2.00;;;;;;;;;;5091100;28;20053;-87
2022/05/01 11:09:45;;;;;;;5.72;3.50;;;;;;;;;;5089541;28;20050;-84
2022/05/01 11:12:12;;;;;;;7.75;2.58;;;;;;;;;;5109184;28;20114;-88
2022/05/01 11:14:57;;;;;;;5.00;3.17;;;;;;;;;;5111316;28;20027;-87
2022/05/01 11:17:36;;;;;;;3.63;2.53;;;;;;;;;;5111251;28;20038;-86
2022/05/01 11:20:04;;;;;;;11.45;8.75;;;;;;;;;;5091502;28;20027;-86
2022/05/01 11:22:31;;;;;;;12.93;10.77;;;;;;;;;;5091940;28;20027;-89
2022/05/01 11:24:57;;;;;;;4.20;2.67;;;;;;;;;;5111048;28;20012;-85
2022/05/01 11:27:23;;;;;;;4.03;2.17;;;;;;;;;;5111020;28;20043;-89
2022/05/01 11:30:07;;;;;;;2.78;2.10;;;;;;;;;;5111427;28;20425;-87
2022/05/01 11:33:01;;;;;;;3.00;2.20;;;;;;;;;;5108761;28;20387;-89
2022/05/01 11:35:56;;;;;;;3.58;2.30;;;;;;;;;;5099330;28;20055;-88
2022/05/01 11:38:42;;;;;;;4.30;3.00;;;;;;;;;;5107731;28;20030;-86
2022/05/01 11:41:08;;;;;;;4.57;2.33;;;;;;;;;;5112378;28;20043;-85
2022/05/01 11:43:35;;;;;;;4.05;2.53;;;;;;;;;;5115355;28;20092;-87
2022/05/01 11:46:02;;;;;;;2.25;2.05;;;;;;;;;;5096647;28;20023;-85
2022/05/01 11:48:28;;;;;;;3.60;2.40;;;;;;;;;;5114852;28;20152;-86
2022/05/01 11:50:58;;;;;;;5.20;2.78;;;;;;;;;;5112972;27;20035;-89
2022/05/01 11:53:28;;;;;;;4.68;2.92;;;;;;;;;;5112257;28;20031;-88
2022/05/01 12:04:26;;;;;;;3.97;2.88;;;;;;;;;;5111945;28;20027;-85
2022/05/01 12:07:15;;;;;;;3.60;2.70;;;;;;;;;;5113875;28;20106;-88
2022/05/01 12:09:41;;;;;;;12.13;9.23;;;;;;;;;;5113745;28;20482;-84
2022/05/01 12:12:12;;;;;;;5.30;3.63;;;;;;;;;;5113725;28;20055;-86
2022/05/01 12:14:41;;;;;;;3.67;2.90;;;;;;;;;;5113838;28;20028;-86
2022/05/01 12:17:14;;;;;;;3.78;2.42;;;;;;;;;;5114641;28;20066;-88
2022/05/01 12:19:58;;;;;;;5.53;2.40;;;;;;;;;;5113181;28;20397;-86
2022/05/01 12:22:30;;;;;;;4.00;2.58;;;;;;;;;;5095934;28;20040;-86
2022/05/01 12:24:57;;;;;;;3.90;2.65;;;;;;;;;;5113329;28;20110;-86
2022/05/01 12:27:26;;;;;;;3.22;2.30;;;;;;;;;;5113650;28;20065;-89
2022/05/01 12:29:53;;;;;;;2.60;2.10;;;;;;;;;;5114589;28;20040;-88
2022/05/01 12:32:19;;;;;;;2.80;2.45;;;;;;;;;;5114818;28;20032;-88
2022/05/01 12:34:44;;;;;;;9.20;3.20;;;;;;;;;;5112173;28;20406;-87
2022/05/01 12:37:14;;;;;;;2.75;2.08;;;;;;;;;;5114875;28;20034;-86
2022/05/01 12:39:41;;;;;;;5.05;2.60;;;;;;;;;;5114719;28;20399;-89
2022/05/01 12:45:04;;;;;;;;;;;;;;;;;;5109360;28;20081;-85
2022/05/01 12:47:33;;;;;;;7.57;3.65;;;;;;;;;;5109992;28;19933;-85
2022/05/01 12:50:00;;;;;;;4.10;2.53;;;;;;;;;;5113416;28;20467;-85
2022/05/01 12:52:37;;;;;;;3.22;2.10;;;;;;;;;;5112610;28;20111;-82
2022/05/01 12:55:15;;;;;;;3.95;2.67;;;;;;;;;;5114007;28;20383;-88
2022/05/01 12:57:43;;;;;;;4.18;2.63;;;;;;;;;;5112797;28;20024;-86
2022/05/01 13:00:09;;;;;;;4.47;2.47;;;;;;;;;;5114339;28;20027;-89
2022/05/01 13:02:35;;;;;;;2.90;2.55;;;;;;;;;;5110487;27;20028;-86
2022/05/01 13:05:07;;;;;;;3.00;2.50;;;;;;;;;;5092547;28;20031;-86
2022/05/01 13:07:36;;;;;;;4.20;2.78;;;;;;;;;;5113409;28;20106;-87
2022/05/01 13:10:03;;;;;;;2.55;2.30;;;;;;;;;;5107717;28;20024;-85
2022/05/01 13:12:34;;;;;;;4.43;2.63;;;;;;;;;;5107700;28;20027;-88
2022/05/01 13:15:04;;;;;;;3.72;2.65;;;;;;;;;;5112904;27;20024;-85
2022/05/01 13:17:32;;;;;;;6.35;2.70;;;;;;;;;;5112986;28;20023;-85
2022/05/01 13:19:58;;;;;;;4.25;2.50;;;;;;;;;;5094947;28;21512;-86
2022/05/01 13:22:24;;;;;;;4.78;2.38;;;;;;;;;;5093073;28;20023;-85
2022/05/01 13:24:52;;;;;;;3.83;2.38;;;;;;;;;;5112940;28;20053;-85
2022/05/01 13:27:19;;;;;;;3.00;2.40;;;;;;;;;;5113423;28;20053;-86
2022/05/01 13:29:45;;;;;;;4.57;2.50;;;;;;;;;;5113282;28;20032;-86
2022/05/01 13:32:11;;;;;;;2.60;2.38;;;;;;;;;;5111393;28;20034;-84
2022/05/01 13:34:41;;;;;;;5.07;2.65;;;;;;;;;;5108804;28;20019;-87
2022/05/01 13:37:08;;;;;;;3.13;2.33;;;;;;;;;;5109578;28;20375;-89
2022/05/01 13:45:02;;;;;;;3.47;2.40;;;;;;;;;;5113111;28;20038;-84
2022/05/01 13:47:28;;;;;;;5.05;2.50;;;;;;;;;;5093361;28;20027;-86
2022/05/01 13:49:55;;;;;;;4.28;3.38;;;;;;;;;;5111473;28;20083;-86
2022/05/01 13:52:21;;;;;;;2.90;2.47;;;;;;;;;;5094297;28;20032;-87
2022/05/01 13:54:48;;;;;;;3.28;2.35;;;;;;;;;;5111891;28;20031;-85
2022/05/01 13:57:14;;;;;;;2.95;2.17;;;;;;;;;;5108649;28;20024;-87
2022/05/01 13:59:39;;;;;;;3.05;2.00;;;;;;;;;;5112752;28;20118;-89
2022/05/01 14:02:08;;;;;;;2.58;2.08;;;;;;;;;;5111887;28;20515;-88
2022/05/01 14:04:33;;;;;;;2.75;2.00;;;;;;;;;;5109134;28;20462;-89
2022/05/01 14:06:59;;;;;;;3.72;2.08;;;;;;;;;;5093247;28;20020;-88
2022/05/01 14:09:25;;;;;;;3.30;2.58;;;;;;;;;;5109893;28;20038;-88
2022/05/01 14:11:53;;;;;;;2.50;2.28;;;;;;;;;;5112465;28;20096;-90
2022/05/01 14:14:19;;;;;;;3.53;2.42;;;;;;;;;;5094371;28;20085;-89
2022/05/01 14:16:45;;;;;;;2.72;2.33;;;;;;;;;;5107941;28;20417;-87
2022/05/01 14:19:15;;;;;;;3.50;2.50;;;;;;;;;;5092029;28;20531;-89
2022/05/01 14:21:45;;;;;;;3.70;2.30;;;;;;;;;;5111474;28;20072;-90
2022/05/01 14:24:11;;;;;;;3.03;2.50;;;;;;;;;;5089533;28;20019;-89
2022/05/01 14:26:37;;;;;;;3.50;2.70;;;;;;;;;;5110049;28;20429;-90
2022/05/01 14:29:03;;;;;;;2.88;2.30;;;;;;;;;;5111700;28;20023;-88
2022/05/01 14:31:58;;;;;;;5.53;2.13;;;;;;;;;;5092755;28;20128;-90
2022/05/01 14:34:37;;;;;;;2.78;1.90;;;;;;;;;;5112345;28;20433;-88
2022/05/01 14:37:04;;;;;;;4.43;2.60;;;;;;;;;;5093033;28;20032;-89
2022/05/01 14:39:35;;;;;;;3.33;2.45;;;;;;;;;;5112245;28;20048;-87
2022/05/01 14:42:05;;;;;;;5.75;2.63;;;;;;;;;;5094124;28;20066;-87
2022/05/01 14:44:32;;;;;;;;;;;;;;;;;;5113726;28;20020;-88
2022/05/01 14:47:01;;;;;;;2.90;2.50;;;;;;;;;;5106763;28;20331;-89
2022/05/01 14:49:38;;;;;;;9.00;7.45;;;;;;;;;;5109164;28;20439;-90
2022/05/01 14:52:06;;;;;;;10.18;8.18;;;;;;;;;;5108423;28;20160;-89
2022/05/01 14:54:37;;;;;;;8.82;7.05;;;;;;;;;;5090242;28;20482;-89
2022/05/01 14:57:25;;;;;;;3.53;2.28;;;;;;;;;;5112550;28;20030;-88
2022/05/01 15:08:30;;;;;;;2.85;2.40;;;;;;;;;;5109987;28;20115;-87
2022/05/01 15:10:57;;;;;;;4.07;2.60;;;;;;;;;;5094366;28;20038;-90
2022/05/01 15:13:24;;;;;;;3.45;2.50;;;;;;;;;;5112585;28;20032;-88
2022/05/01 15:16:12;;;;;;;2.85;2.47;;;;;;;;;;5098595;28;20046;-88
2022/05/01 15:19:17;;;;;;;2.72;2.15;;;;;;;;;;5114227;28;20022;-87
2022/05/01 15:24:51;;;;;;;3.33;2.70;;;;;;;;;;5116669;28;20042;-87
2022/05/01 15:27:47;;;;;;;3.28;2.50;;;;;;;;;;5096395;28;20027;-87
2022/05/01 15:30:14;;;;;;;3.17;2.50;;;;;;;;;;5095208;28;20103;-88
2022/05/01 15:35:37;;;;;;;4.88;3.38;;;;;;;;;;5115029;28;20475;-88
2022/05/01 15:38:07;;;;;;;2.75;2.38;;;;;;;;;;5097749;28;20081;-89
2022/05/01 15:40:34;;;;;;;3.20;2.50;;;;;;;;;;5095604;28;20044;-86
2022/05/01 15:43:00;;;;;;;6.03;2.17;;;;;;;;;;5115355;28;20382;-86
2022/05/01 15:45:27;;;;;;;3.50;2.35;;;;;;;;;;5116195;28;20094;-86
2022/05/01 15:47:53;;;;;;;13.60;8.60;;;;;;;;;;5114880;28;20466;-87